Time;durP1;ratioP1;P1;durP2;ratioP2;P2;SDS_P1;SDS_P2;PMS_P1;PMS_P2;Temp;Humidity;BMP_temperature;BMP_pressure;BME280_temperature;BME280_humidity;BME280_pressure;Samples;Min_cycle;Max_cycle;Signal;HPM_P1;HPM_P2
2022/02/05 00:02:45;;;;;;;7.78;2.42;;;9.10;69.00;;;;;;5052316;28;20116;-73
2022/02/05 00:05:13;;;;;;;6.32;2.88;;;9.20;69.10;;;;;;5052523;28;20071;-73
2022/02/05 00:07:46;;;;;;;8.52;2.60;;;9.10;68.90;;;;;;5052156;28;20025;-72
2022/02/05 00:12:58;;;;;;;7.60;2.40;;;9.10;68.90;;;;;;5051998;28;20572;-73
2022/02/05 00:40:16;;;;;;;7.97;2.67;;;9.10;69.60;;;;;;5096917;28;20459;-71
2022/02/05 00:42:41;;;;;;;6.53;2.40;;;9.10;69.40;;;;;;5096459;28;20115;-71
2022/02/05 00:45:09;;;;;;;6.97;2.53;;;9.10;69.20;;;;;;5097037;28;20016;-72
2022/02/05 00:47:38;;;;;;;5.50;2.20;;;9.20;69.40;;;;;;5097026;28;20042;-71
2022/02/05 00:50:09;;;;;;;6.50;2.08;;;9.20;69.40;;;;;;5075953;28;20496;-72
2022/02/05 00:52:35;;;;;;;6.25;2.00;;;9.20;69.50;;;;;;5093993;28;20043;-71
2022/02/05 00:55:11;;;;;;;4.95;2.20;;;9.20;69.70;;;;;;5096523;28;20481;-71
2022/02/05 00:57:45;;;;;;;5.60;2.13;;;9.20;68.90;;;;;;5096707;28;20024;-71
2022/02/05 01:00:16;;;;;;;5.60;2.38;;;9.20;69.40;;;;;;5096449;28;20480;-71
2022/02/05 01:02:42;;;;;;;4.07;1.95;;;9.20;69.30;;;;;;5096800;28;20043;-73
2022/02/05 01:05:08;;;;;;;5.75;2.05;;;9.20;69.10;;;;;;5094056;28;20417;-73
2022/02/05 01:07:34;;;;;;;6.47;2.08;;;9.20;68.60;;;;;;5092919;28;20031;-72
2022/02/05 01:10:00;;;;;;;4.45;1.92;;;9.10;69.00;;;;;;5113813;27;20024;-72
2022/02/05 01:12:28;;;;;;;6.18;2.38;;;9.10;69.20;;;;;;5096161;28;20034;-72
2022/02/05 01:14:55;;;;;;;6.68;1.90;;;9.10;68.80;;;;;;5096402;28;20031;-72
2022/02/05 01:17:29;;;;;;;4.80;1.80;;;9.10;69.50;;;;;;5096299;28;20020;-72
2022/02/05 01:22:38;;;;;;;6.53;2.20;;;8.90;69.10;;;;;;5077805;28;20713;-72
2022/02/05 01:25:04;;;;;;;6.22;2.03;;;8.90;69.60;;;;;;5096480;28;20020;-72
2022/02/05 01:32:29;;;;;;;7.38;2.08;;;9.00;70.50;;;;;;5096211;28;20385;-73
2022/02/05 01:35:06;;;;;;;6.03;2.08;;;9.00;69.70;;;;;;5092186;28;20025;-73
2022/02/05 01:51:12;;;;;;;4.80;1.52;;;9.10;69.50;;;;;;5095453;28;20709;-73
2022/02/05 01:59:16;;;;;;;8.23;2.08;;;9.10;69.50;;;;;;5091071;28;20044;-72
2022/02/05 02:04:49;;;;;;;4.93;2.08;;;9.00;69.30;;;;;;5105373;28;20071;-74
2022/02/05 02:13:09;;;;;;;4.68;2.10;;;8.90;69.30;;;;;;5094282;28;20415;-72
2022/02/05 02:16:34;;;;;;;5.72;2.13;;;8.90;69.50;;;;;;5095352;28;20027;-71
2022/02/05 02:26:13;;;;;;;4.85;1.80;;;8.70;69.80;;;;;;5092446;28;20077;-72
2022/02/05 02:28:50;;;;;;;6.20;2.13;;;8.60;69.80;;;;;;5091909;28;20020;-71
2022/02/05 02:31:21;;;;;;;3.30;1.50;;;8.50;70.10;;;;;;5097010;28;20028;-72
2022/02/05 02:33:51;;;;;;;6.15;1.70;;;8.60;70.60;;;;;;5093464;28;20038;-71
2022/02/05 02:36:29;;;;;;;7.22;2.03;;;8.70;70.50;;;;;;5094853;28;20038;-73
2022/02/05 02:38:59;;;;;;;4.57;1.48;;;8.80;71.20;;;;;;5094715;28;20047;-73
2022/02/05 02:41:30;;;;;;;3.45;1.45;;;8.80;70.50;;;;;;5075882;28;20126;-73
2022/02/05 02:43:56;;;;;;;3.95;1.65;;;8.80;70.50;;;;;;5091075;28;20162;-73
2022/02/05 02:46:22;;;;;;;5.22;1.70;;;8.80;70.00;;;;;;5095995;28;20540;-73
2022/02/05 02:48:49;;;;;;;3.95;1.75;;;8.80;70.00;;;;;;5094910;28;20492;-73
2022/02/05 02:56:56;;;;;;;4.60;1.92;;;8.70;70.20;;;;;;5094826;28;20092;-73
2022/02/05 02:59:36;;;;;;;6.78;1.95;;;8.70;70.40;;;;;;5092796;28;20491;-74
2022/02/05 03:02:12;;;;;;;5.45;1.90;;;8.70;70.40;;;;;;5071570;28;20119;-73
2022/02/05 03:04:38;;;;;;;6.18;2.00;;;8.80;70.50;;;;;;5091822;28;20032;-74
2022/02/05 03:07:04;;;;;;;6.05;2.20;;;8.80;70.20;;;;;;5096421;28;20186;-74
2022/02/05 03:09:30;;;;;;;5.05;1.80;;;8.80;70.00;;;;;;5094622;28;20032;-72
2022/02/05 03:11:56;;;;;;;3.42;1.52;;;8.80;70.20;;;;;;5094850;28;20040;-73
2022/02/05 03:14:21;;;;;;;5.75;1.77;;;8.70;70.00;;;;;;5094140;28;20415;-73
2022/02/05 03:16:51;;;;;;;5.38;1.90;;;8.70;71.10;;;;;;5090042;28;20020;-73
2022/02/05 03:19:17;;;;;;;5.32;1.90;;;8.70;70.40;;;;;;5107912;28;20036;-72
2022/02/05 03:21:44;;;;;;;8.35;2.13;;;8.60;70.00;;;;;;5094735;28;20020;-73
2022/02/05 03:24:10;;;;;;;7.25;2.28;;;8.60;70.30;;;;;;5094634;28;20024;-75
2022/02/05 03:26:37;;;;;;;5.05;2.08;;;8.60;70.00;;;;;;5094735;28;20809;-73
2022/02/05 03:29:09;;;;;;;4.90;1.55;;;8.60;70.50;;;;;;5091769;28;20032;-73
2022/02/05 03:31:35;;;;;;;4.35;1.98;;;8.60;70.80;;;;;;5095955;28;20023;-73
2022/02/05 03:34:01;;;;;;;5.07;1.63;;;8.50;70.10;;;;;;5100369;28;20028;-73
2022/02/05 03:36:27;;;;;;;5.95;1.67;;;8.40;70.20;;;;;;5098227;28;20036;-73
2022/02/05 03:38:52;;;;;;;4.75;2.20;;;8.30;70.50;;;;;;5096857;28;20032;-73
2022/02/05 03:41:18;;;;;;;4.68;2.08;;;8.30;70.60;;;;;;5097719;28;20088;-72
2022/02/05 03:43:44;;;;;;;5.03;1.65;;;8.30;71.10;;;;;;5094542;28;20073;-73
2022/02/05 03:46:09;;;;;;;4.90;1.90;;;8.40;71.30;;;;;;5099832;28;20016;-74
2022/02/05 03:48:35;;;;;;;4.38;1.65;;;8.40;70.80;;;;;;5098436;28;20073;-74
2022/02/05 03:51:01;;;;;;;6.15;1.58;;;8.50;70.90;;;;;;5079774;28;20031;-74
2022/02/05 03:53:26;;;;;;;5.68;1.98;;;8.50;71.00;;;;;;5098185;28;20031;-74
2022/02/05 03:55:52;;;;;;;6.70;2.28;;;8.50;70.60;;;;;;5093490;28;20094;-74
2022/02/05 03:58:18;;;;;;;5.60;1.83;;;8.50;71.10;;;;;;5099965;28;20032;-73
2022/02/05 04:00:43;;;;;;;5.45;1.90;;;8.50;71.30;;;;;;5097616;28;20046;-73
2022/02/05 04:03:09;;;;;;;6.68;2.00;;;8.50;71.00;;;;;;5096274;28;20151;-73
2022/02/05 04:05:35;;;;;;;6.60;2.42;;;8.50;71.70;;;;;;5097941;28;20023;-74
2022/02/05 04:08:04;;;;;;;8.57;2.30;;;8.40;70.60;;;;;;5094672;28;20024;-72
2022/02/05 04:10:32;;;;;;;4.90;1.85;;;8.40;70.80;;;;;;5097142;28;20023;-72
2022/02/05 04:18:26;;;;;;;4.75;2.05;;;8.20;70.60;;;;;;5096216;28;20047;-72
2022/02/05 04:20:52;;;;;;;6.63;2.10;;;8.20;71.00;;;;;;5097173;28;20024;-72
2022/02/05 04:23:18;;;;;;;6.60;2.08;;;8.20;71.50;;;;;;5096777;28;20086;-72
2022/02/05 04:25:45;;;;;;;5.07;1.55;;;8.30;71.60;;;;;;5093816;28;22559;-73
2022/02/05 04:28:11;;;;;;;5.82;2.00;;;8.30;71.40;;;;;;5099263;28;20509;-73
2022/02/05 04:30:37;;;;;;;6.40;2.40;;;8.40;71.20;;;;;;5097029;28;20028;-74
2022/02/05 04:33:03;;;;;;;5.38;1.80;;;8.40;71.30;;;;;;5097179;28;20528;-74
2022/02/05 04:35:28;;;;;;;4.90;2.17;;;8.40;71.40;;;;;;5097276;28;20057;-74
2022/02/05 04:37:56;;;;;;;5.25;2.20;;;8.40;71.30;;;;;;5093010;28;20031;-73
2022/02/05 04:40:33;;;;;;;8.98;2.08;;;8.40;71.60;;;;;;5098204;28;20129;-73
2022/02/05 04:56:33;;;;;;;4.25;1.92;;;8.20;71.30;;;;;;5035549;28;20029;-73
2022/02/05 04:59:24;;;;;;;3.90;1.65;;;8.20;71.20;;;;;;5017054;28;20037;-73
2022/02/05 05:09:38;;;;;;;7.63;2.33;;;8.30;71.80;;;;;;5035508;28;20120;-73
2022/02/05 05:20:10;;;;;;;6.13;2.33;;;8.30;72.10;;;;;;5033045;28;20036;-72
2022/02/05 05:22:36;;;;;;;5.38;2.08;;;8.30;71.40;;;;;;5033037;28;20174;-72
2022/02/05 05:25:02;;;;;;;5.07;2.30;;;8.30;71.80;;;;;;5033929;28;20120;-72
2022/02/05 05:27:29;;;;;;;6.25;2.40;;;8.10;71.00;;;;;;5058039;28;20405;-72
2022/02/05 05:29:54;;;;;;;5.55;1.90;;;8.00;71.10;;;;;;5096201;28;20106;-72
2022/02/05 05:32:20;;;;;;;5.03;2.10;;;8.00;72.00;;;;;;5095495;28;20456;-72
2022/02/05 05:34:46;;;;;;;5.45;1.83;;;7.90;71.50;;;;;;5092319;28;20444;-72
2022/02/05 05:37:11;;;;;;;5.18;1.90;;;7.90;71.50;;;;;;5098006;28;20032;-73
2022/02/05 05:39:39;;;;;;;4.50;2.15;;;7.90;71.80;;;;;;5096133;28;20432;-73
2022/02/05 05:42:09;;;;;;;5.90;1.90;;;7.90;71.90;;;;;;5095730;28;20454;-73
2022/02/05 05:52:16;;;;;;;5.18;2.10;;;7.80;72.10;;;;;;5097184;28;20457;-72
2022/02/05 05:54:42;;;;;;;5.43;1.95;;;7.80;72.00;;;;;;5095757;28;20021;-72
2022/02/05 05:57:08;;;;;;;6.57;2.53;;;7.80;72.30;;;;;;5095077;28;20024;-72
2022/02/05 05:59:34;;;;;;;6.72;2.25;;;7.70;72.10;;;;;;5095751;28;20445;-72
2022/02/05 06:01:59;;;;;;;4.60;2.28;;;7.60;72.00;;;;;;5090473;28;20024;-72
2022/02/05 06:04:25;;;;;;;5.60;2.13;;;7.50;71.70;;;;;;5077526;28;20121;-72
2022/02/05 06:06:50;;;;;;;4.18;2.13;;;7.50;72.20;;;;;;5096145;28;20594;-72
2022/02/05 06:09:16;;;;;;;6.75;2.45;;;7.50;72.20;;;;;;5095543;28;20028;-73
2022/02/05 06:11:41;;;;;;;4.97;2.70;;;7.50;72.60;;;;;;5095149;28;20042;-74
2022/02/05 06:14:07;;;;;;;5.15;2.40;;;7.50;72.30;;;;;;5091594;28;20501;-73
2022/02/05 06:16:34;;;;;;;6.32;2.47;;;7.40;72.20;;;;;;5093968;28;20142;-73
2022/02/05 06:19:00;;;;;;;4.65;2.38;;;7.40;72.60;;;;;;5096750;28;20077;-73
2022/02/05 06:21:25;;;;;;;5.97;2.47;;;7.30;72.40;;;;;;5095333;28;20032;-73
2022/02/05 06:23:51;;;;;;;4.68;2.20;;;7.40;72.90;;;;;;5077138;28;20036;-73
2022/02/05 06:26:17;;;;;;;5.03;2.25;;;7.40;72.60;;;;;;5093652;28;20027;-73
2022/02/05 06:28:43;;;;;;;4.75;2.35;;;7.30;73.40;;;;;;5091576;28;20086;-73
2022/02/05 06:31:09;;;;;;;3.88;2.20;;;7.30;72.20;;;;;;5078886;28;20024;-72
2022/02/05 06:33:34;;;;;;;6.20;2.42;;;7.30;73.20;;;;;;5094829;28;20495;-72
2022/02/05 06:36:00;;;;;;;6.35;2.45;;;7.40;73.30;;;;;;5095273;28;20097;-72
2022/02/05 06:38:25;;;;;;;5.10;2.17;;;7.40;72.90;;;;;;5095026;28;20572;-73
2022/02/05 06:40:55;;;;;;;5.72;2.25;;;7.30;72.50;;;;;;5090290;28;20480;-73
2022/02/05 06:43:20;;;;;;;6.22;2.58;;;7.30;72.60;;;;;;5104707;28;20024;-73
2022/02/05 06:45:46;;;;;;;5.57;2.15;;;7.30;72.50;;;;;;5094927;28;20191;-73
2022/02/05 06:48:13;;;;;;;4.50;1.80;;;7.20;72.70;;;;;;5095094;28;20028;-73
2022/02/05 06:50:38;;;;;;;3.45;2.25;;;7.20;72.90;;;;;;5094514;28;20399;-73
2022/02/05 06:53:04;;;;;;;6.95;2.72;;;7.30;73.40;;;;;;5091989;28;20031;-73
2022/02/05 06:55:30;;;;;;;6.60;2.30;;;7.20;72.60;;;;;;5094012;28;20024;-74
2022/02/05 06:57:55;;;;;;;4.70;2.25;;;7.10;72.50;;;;;;5095644;28;20035;-74
2022/02/05 07:00:21;;;;;;;5.00;2.45;;;7.10;72.90;;;;;;5094788;28;20054;-73
2022/02/05 07:02:47;;;;;;;4.93;2.10;;;7.10;72.70;;;;;;5093300;28;20020;-73
2022/02/05 07:05:12;;;;;;;3.25;2.10;;;7.00;72.70;;;;;;5074759;28;20777;-73
2022/02/05 07:07:40;;;;;;;4.97;2.50;;;7.00;72.90;;;;;;5091833;28;20051;-74
2022/02/05 07:10:07;;;;;;;3.55;2.28;;;7.10;73.20;;;;;;5096407;28;20490;-74
2022/02/05 07:12:37;;;;;;;6.25;1.92;;;7.00;72.80;;;;;;5094219;28;20038;-74
2022/02/05 07:15:08;;;;;;;5.82;2.08;;;7.00;72.90;;;;;;5094369;28;20036;-74
2022/02/05 07:20:08;;;;;;;3.97;2.20;;;6.90;72.80;;;;;;5091104;28;20047;-72
2022/02/05 07:22:44;;;;;;;6.13;2.80;;;6.90;73.10;;;;;;5092851;28;20020;-72
2022/02/05 07:30:20;;;;;;;5.28;2.58;;;7.00;73.00;;;;;;5094305;28;20054;-72
2022/02/05 07:32:45;;;;;;;6.55;2.20;;;6.90;72.90;;;;;;5092913;28;20028;-72
2022/02/05 07:35:11;;;;;;;7.47;2.60;;;6.80;72.30;;;;;;5092476;28;20400;-72
2022/02/05 07:37:37;;;;;;;6.78;2.25;;;6.80;72.90;;;;;;5091486;28;20028;-72
2022/02/05 07:40:03;;;;;;;4.15;2.10;;;6.80;73.20;;;;;;5094144;28;20063;-72
2022/02/05 07:42:29;;;;;;;5.15;2.10;;;6.80;73.60;;;;;;5094392;28;20035;-71
2022/02/05 07:44:55;;;;;;;8.55;3.08;;;7.10;74.00;;;;;;5094155;28;20024;-72
2022/02/05 07:47:22;;;;;;;5.18;2.40;;;7.00;73.30;;;;;;5093855;28;20031;-73
2022/02/05 07:49:48;;;;;;;4.90;2.10;;;7.00;73.20;;;;;;5089944;28;20073;-72
2022/02/05 07:52:14;;;;;;;5.70;2.30;;;7.10;73.50;;;;;;5095832;28;20040;-72
2022/02/05 07:54:40;;;;;;;6.13;2.58;;;7.10;73.50;;;;;;5094071;28;20070;-73
2022/02/05 07:57:06;;;;;;;5.97;2.03;;;7.20;74.10;;;;;;5094215;28;20106;-73
2022/02/05 07:59:32;;;;;;;5.60;2.08;;;7.30;74.30;;;;;;5094000;28;20062;-73
2022/02/05 08:01:58;;;;;;;4.55;2.25;;;7.40;74.10;;;;;;5088591;28;20496;-74
2022/02/05 08:04:23;;;;;;;5.13;2.40;;;7.60;74.20;;;;;;5094876;28;20028;-73
2022/02/05 08:06:50;;;;;;;7.50;2.58;;;7.60;74.00;;;;;;5093947;28;20031;-72
2022/02/05 08:09:23;;;;;;;4.25;2.03;;;7.80;73.80;;;;;;5094005;28;20122;-73
2022/02/05 08:12:05;;;;;;;5.95;2.20;;;8.00;73.70;;;;;;5094244;28;20016;-73
2022/02/05 08:14:34;;;;;;;5.35;2.70;;;8.20;73.30;;;;;;5093781;28;20040;-74
2022/02/05 08:17:13;;;;;;;5.53;2.28;;;8.40;73.00;;;;;;5075547;28;20031;-73
2022/02/05 08:19:38;;;;;;;6.57;2.53;;;8.60;72.70;;;;;;5094631;28;20035;-73
2022/02/05 08:22:04;;;;;;;4.97;2.50;;;8.70;72.40;;;;;;5099166;28;20024;-72
2022/02/05 08:24:30;;;;;;;5.10;2.42;;;8.80;72.50;;;;;;5079333;28;20052;-72
2022/02/05 08:26:55;;;;;;;6.57;2.53;;;9.10;72.10;;;;;;5097658;28;20034;-72
2022/02/05 08:29:21;;;;;;;6.50;2.78;;;9.30;71.80;;;;;;5096706;28;20468;-71
2022/02/05 08:31:47;;;;;;;5.88;2.70;;;9.60;71.20;;;;;;5093538;28;20044;-73
2022/02/05 08:34:13;;;;;;;4.75;2.75;;;9.70;71.20;;;;;;5098965;28;20501;-72
2022/02/05 08:36:49;;;;;;;6.45;3.20;;;10.00;70.90;;;;;;5096265;28;20040;-72
2022/02/05 08:39:17;;;;;;;6.22;2.97;;;10.20;70.40;;;;;;5079022;28;20031;-72
2022/02/05 08:41:44;;;;;;;7.13;3.17;;;10.40;69.80;;;;;;5096673;28;20081;-72
2022/02/05 08:44:10;;;;;;;6.20;3.22;;;10.70;69.50;;;;;;5095080;28;20103;-72
2022/02/05 08:46:36;;;;;;;5.43;2.85;;;11.00;68.90;;;;;;5094867;28;20039;-72
2022/02/05 08:49:04;;;;;;;5.97;3.00;;;11.10;68.30;;;;;;5098472;28;20028;-73
2022/02/05 08:51:29;;;;;;;6.63;3.15;;;11.40;68.40;;;;;;5095214;28;20111;-72
2022/02/05 08:53:55;;;;;;;5.32;2.70;;;11.70;68.90;;;;;;5097190;28;20508;-72
2022/02/05 08:56:23;;;;;;;7.53;3.00;;;12.10;68.60;;;;;;5078026;28;20028;-72
2022/02/05 08:58:50;;;;;;;7.15;2.90;;;12.30;68.20;;;;;;5092512;28;20089;-72
2022/02/05 09:01:23;;;;;;;6.82;3.08;;;12.50;67.10;;;;;;5080561;28;20456;-72
2022/02/05 09:06:17;;;;;;;6.88;2.70;;;12.90;65.20;;;;;;5096069;28;20352;-70
2022/02/05 09:08:49;;;;;;;4.22;2.90;;;13.00;65.40;;;;;;5078581;28;20508;-73
2022/02/05 09:11:30;;;;;;;6.38;2.40;;;13.00;64.10;;;;;;5076747;28;20023;-72
2022/02/05 09:14:10;;;;;;;7.53;2.60;;;12.90;64.10;;;;;;5090289;28;20040;-67
2022/02/05 09:16:36;;;;;;;6.25;2.13;;;13.10;65.10;;;;;;5088860;28;20036;-66
2022/02/05 09:19:02;;;;;;;5.97;2.17;;;13.20;65.10;;;;;;5089400;28;20496;-66
2022/02/05 09:21:30;;;;;;;5.78;2.15;;;13.10;64.30;;;;;;5094597;28;20024;-67
2022/02/05 09:23:58;;;;;;;6.03;2.35;;;13.10;64.00;;;;;;5063455;28;20081;-66
2022/02/05 09:26:25;;;;;;;7.43;2.35;;;13.20;64.20;;;;;;5093903;28;20442;-66
2022/02/05 09:28:52;;;;;;;5.60;2.42;;;13.30;64.70;;;;;;5084847;28;20036;-67
2022/02/05 09:31:28;;;;;;;4.55;1.75;;;13.50;64.40;;;;;;5094292;28;20031;-67
2022/02/05 09:33:54;;;;;;;5.90;2.03;;;13.70;65.00;;;;;;5093977;28;20556;-65
2022/02/05 09:36:20;;;;;;;4.60;2.05;;;13.80;62.90;;;;;;5090908;28;20114;-67
2022/02/05 09:38:46;;;;;;;6.30;2.25;;;13.80;63.30;;;;;;5091705;28;20096;-65
2022/02/05 09:41:11;;;;;;;3.90;1.63;;;13.90;64.40;;;;;;5091162;28;20032;-67
2022/02/05 09:43:37;;;;;;;7.10;1.98;;;14.10;63.10;;;;;;5071894;28;20024;-67
2022/02/05 09:46:03;;;;;;;5.75;1.95;;;14.20;63.60;;;;;;5093203;28;20078;-67
2022/02/05 09:48:30;;;;;;;4.18;1.77;;;14.50;63.70;;;;;;5090690;28;20032;-66
2022/02/05 09:51:05;;;;;;;3.55;1.20;;;14.60;63.90;;;;;;5099797;28;20028;-68
2022/02/05 09:53:32;;;;;;;5.30;1.55;;;14.80;62.50;;;;;;5102393;28;20034;-68
2022/02/05 09:55:58;;;;;;;5.68;1.50;;;14.70;61.80;;;;;;5099648;28;20032;-68
2022/02/05 09:58:23;;;;;;;7.07;2.05;;;14.90;61.90;;;;;;5092093;28;20046;-68
2022/02/05 10:01:19;;;;;;;4.25;1.77;;;15.00;62.30;;;;;;5094430;28;20055;-68
2022/02/05 10:03:46;;;;;;;5.65;1.80;;;15.10;62.80;;;;;;5090548;28;20046;-68
2022/02/05 10:06:23;;;;;;;5.68;1.70;;;15.10;61.10;;;;;;5076333;28;20024;-68
2022/02/05 10:09:00;;;;;;;4.45;1.77;;;15.10;62.70;;;;;;5093046;28;20473;-68
2022/02/05 10:11:30;;;;;;;6.47;2.13;;;15.40;61.20;;;;;;5094142;28;20408;-67
2022/02/05 10:14:18;;;;;;;5.13;1.65;;;15.70;61.40;;;;;;5090649;28;20776;-65
2022/02/05 10:16:53;;;;;;;5.10;1.90;;;15.70;61.80;;;;;;5073268;28;20501;-64
2022/02/05 10:19:20;;;;;;;4.88;1.85;;;15.90;61.00;;;;;;5102980;28;20039;-64
2022/02/05 10:22:03;;;;;;;5.32;1.70;;;16.20;60.50;;;;;;5094490;28;20024;-64
2022/02/05 10:24:29;;;;;;;4.68;1.73;;;16.10;59.90;;;;;;5094675;28;20027;-64
2022/02/05 10:26:56;;;;;;;3.65;1.67;;;16.10;59.90;;;;;;5094583;28;20035;-65
2022/02/05 10:29:22;;;;;;;4.60;1.50;;;16.20;59.30;;;;;;5093296;28;20031;-64
2022/02/05 10:34:35;;;;;;;6.32;1.70;;;16.60;60.60;;;;;;5098938;28;20463;-65
2022/02/05 10:37:18;;;;;;;5.72;2.03;;;16.80;58.50;;;;;;5096196;28;20035;-65
2022/02/05 10:43:16;;;;;;;5.25;2.10;;;17.10;59.40;;;;;;5077383;28;20052;-65
2022/02/05 10:45:44;;;;;;;5.22;1.73;;;17.00;58.50;;;;;;5098252;28;20043;-64
2022/02/05 10:48:14;;;;;;;3.70;1.70;;;17.20;57.70;;;;;;5096297;28;20480;-65
2022/02/05 10:50:40;;;;;;;5.55;1.80;;;17.20;56.70;;;;;;5075975;28;20495;-65
2022/02/05 10:53:41;;;;;;;6.28;1.60;;;17.30;58.30;;;;;;5090963;28;20016;-65
2022/02/05 11:07:14;;;;;;;3.70;1.80;;;17.70;58.70;;;;;;5095832;28;20412;-65
2022/02/05 11:09:46;;;;;;;4.55;1.77;;;17.90;56.30;;;;;;5075748;28;20157;-64
2022/02/05 11:20:09;;;;;;;6.53;1.80;;;18.30;55.30;;;;;;5092259;28;20068;-66
2022/02/05 11:22:39;;;;;;;3.92;1.77;;;18.30;54.20;;;;;;5092428;28;20023;-67
2022/02/05 11:25:07;;;;;;;5.70;2.00;;;18.30;56.40;;;;;;5094864;28;20540;-66
2022/02/05 11:27:32;;;;;;;6.38;2.38;;;18.40;55.00;;;;;;5092768;28;20496;-68
2022/02/05 11:30:27;;;;;;;6.03;1.90;;;18.40;54.50;;;;;;5094045;28;20032;-68
2022/02/05 11:33:01;;;;;;;5.97;1.98;;;18.30;56.10;;;;;;5094390;28;20032;-64
2022/02/05 11:35:41;;;;;;;3.70;1.50;;;18.30;53.40;;;;;;5093989;28;20031;-71
2022/02/05 11:38:06;;;;;;;5.10;2.00;;;18.30;53.90;;;;;;5091773;28;20572;-70
2022/02/05 11:40:41;;;;;;;5.22;1.50;;;18.30;53.10;;;;;;5092777;28;20099;-69
2022/02/05 11:43:23;;;;;;;4.75;1.48;;;18.30;53.70;;;;;;5094611;28;20419;-68
2022/02/05 11:46:04;;;;;;;5.18;1.63;;;18.30;54.50;;;;;;5092900;28;20028;-67
2022/02/05 11:48:39;;;;;;;4.22;1.40;;;18.40;55.40;;;;;;5094031;28;20036;-68
2022/02/05 11:51:21;;;;;;;3.47;1.33;;;18.30;53.40;;;;;;5092213;28;20056;-68
2022/02/05 11:53:55;;;;;;;4.35;1.38;;;18.40;54.00;;;;;;5097114;28;20031;-67
2022/02/05 11:59:14;;;;;;;3.13;1.17;;;18.20;52.50;;;;;;5091863;28;20043;-69
2022/02/05 12:01:41;;;;;;;3.13;1.15;;;18.20;54.10;;;;;;5092885;28;20384;-69
2022/02/05 12:04:29;;;;;;;4.47;1.08;;;18.50;54.10;;;;;;5094971;28;20511;-67
2022/02/05 12:06:59;;;;;;;3.95;1.50;;;18.60;55.10;;;;;;5097425;28;20031;-68
2022/02/05 12:09:43;;;;;;;4.60;1.30;;;18.70;54.90;;;;;;5097627;28;20415;-68
2022/02/05 12:12:33;;;;;;;4.80;1.52;;;18.60;53.80;;;;;;5096068;28;20109;-68
2022/02/05 12:15:17;;;;;;;4.32;1.17;;;18.00;51.60;;;;;;5095010;28;20055;-69
2022/02/05 12:21:14;;;;;;;4.18;0.85;;;16.80;53.80;;;;;;5097605;28;20131;-69
2022/02/05 12:26:21;;;;;;;3.80;1.10;;;16.40;54.00;;;;;;5095826;28;20047;-69
2022/02/05 12:28:49;;;;;;;5.35;1.25;;;16.20;54.20;;;;;;5092773;28;20023;-69
2022/02/05 12:31:17;;;;;;;5.35;0.80;;;15.90;53.50;;;;;;5099011;28;20032;-69
2022/02/05 12:33:56;;;;;;;3.65;1.10;;;15.70;54.50;;;;;;5096232;28;20098;-67
2022/02/05 12:36:54;;;;;;;5.13;1.00;;;15.50;55.00;;;;;;5097266;28;20085;-67
2022/02/05 12:39:38;;;;;;;4.47;0.80;;;15.60;55.80;;;;;;5082213;28;20415;-69
2022/02/05 12:42:14;;;;;;;5.75;1.40;;;15.60;56.40;;;;;;5105360;28;20102;-69
2022/02/05 12:44:41;;;;;;;2.58;0.73;;;15.50;54.70;;;;;;5106283;28;20415;-68
2022/02/05 12:47:24;;;;;;;5.00;1.00;;;15.60;56.50;;;;;;5094619;28;20020;-68
2022/02/05 12:49:57;;;;;;;4.13;0.88;;;16.20;58.20;;;;;;5068498;28;20516;-69
2022/02/05 12:52:31;;;;;;;3.85;0.90;;;16.50;55.70;;;;;;5098459;28;20062;-72
2022/02/05 12:54:58;;;;;;;;;;;16.70;55.00;;;;;;5106377;28;20305;-66
2022/02/05 12:57:25;;;;;;;3.40;0.80;;;16.50;55.50;;;;;;5092679;28;19908;-70
2022/02/05 12:59:51;;;;;;;3.88;1.00;;;16.90;55.90;;;;;;5096342;28;20059;-70
2022/02/05 13:02:19;;;;;;;2.88;0.80;;;17.30;56.10;;;;;;5087849;28;20027;-70
2022/02/05 13:04:55;;;;;;;7.75;1.50;;;17.80;54.80;;;;;;5072943;28;20036;-70
2022/02/05 13:07:23;;;;;;;5.18;1.10;;;18.00;55.70;;;;;;5105453;28;20016;-69
2022/02/05 13:09:59;;;;;;;3.97;1.00;;;18.20;52.40;;;;;;5111964;27;20502;-69
2022/02/05 13:12:32;;;;;;;4.05;1.63;;;18.10;52.30;;;;;;5094972;28;20500;-70
2022/02/05 13:15:17;;;;;;;3.88;1.50;;;17.40;50.20;;;;;;5077908;28;20036;-66
2022/02/05 13:34:23;;;;;;;7.07;1.20;;;18.40;55.20;;;;;;5097410;28;20077;-66
2022/02/05 13:42:26;;;;;;;3.03;1.08;;;19.40;48.20;;;;;;5075989;28;20036;-65
2022/02/05 13:45:09;;;;;;;2.75;0.88;;;19.00;47.20;;;;;;5095530;28;20443;-65
2022/02/05 13:47:42;;;;;;;2.22;0.98;;;18.00;46.00;;;;;;5095218;28;20032;-65
2022/02/05 13:50:07;;;;;;;6.88;1.20;;;17.20;48.30;;;;;;5092247;28;20031;-64
2022/02/05 13:52:42;;;;;;;2.85;1.00;;;16.60;49.50;;;;;;5093453;28;20347;-65
2022/02/05 13:55:17;;;;;;;5.15;1.23;;;16.60;51.40;;;;;;5073576;28;20027;-65
2022/02/05 13:57:54;;;;;;;3.33;1.02;;;16.50;52.10;;;;;;5091345;28;20024;-65
2022/02/05 14:00:21;;;;;;;5.03;1.20;;;16.90;53.00;;;;;;5095107;28;20035;-65
2022/02/05 14:02:57;;;;;;;5.22;1.25;;;16.80;50.70;;;;;;5094424;28;20114;-65
2022/02/05 14:05:23;;;;;;;4.22;1.45;;;16.90;52.30;;;;;;5094187;28;20110;-65
2022/02/05 14:07:49;;;;;;;4.47;1.05;;;17.00;51.20;;;;;;5089981;28;20186;-65
2022/02/05 14:10:20;;;;;;;4.45;1.08;;;16.80;50.60;;;;;;5095269;28;20020;-65
2022/02/05 14:12:54;;;;;;;4.32;1.20;;;16.40;50.00;;;;;;5094239;28;20059;-65
2022/02/05 14:15:27;;;;;;;4.13;1.10;;;16.20;51.80;;;;;;5094890;28;20613;-65
2022/02/05 14:18:15;;;;;;;5.50;1.38;;;16.20;51.60;;;;;;5076501;28;20515;-65
2022/02/05 14:20:55;;;;;;;4.53;0.98;;;16.20;53.30;;;;;;5094202;28;20077;-65
2022/02/05 14:23:24;;;;;;;4.65;0.90;;;16.30;53.30;;;;;;5094181;28;20023;-65
2022/02/05 14:26:16;;;;;;;2.50;0.60;;;16.40;52.60;;;;;;5073470;28;20028;-65
2022/02/05 14:28:46;;;;;;;2.67;0.77;;;16.30;51.80;;;;;;5105379;28;20044;-65
2022/02/05 14:42:05;;;;;;;2.58;0.80;;;15.70;51.50;;;;;;5092859;28;20035;-63
2022/02/05 14:44:31;;;;;;;3.42;0.80;;;15.60;51.10;;;;;;5076212;28;20039;-64
2022/02/05 14:46:57;;;;;;;4.97;0.50;;;15.40;51.90;;;;;;5090362;28;20429;-64
2022/02/05 14:49:23;;;;;;;3.47;0.77;;;15.30;52.80;;;;;;5076517;28;20020;-63
2022/02/05 14:51:49;;;;;;;2.30;0.93;;;15.20;51.70;;;;;;5093949;28;20034;-63
2022/02/05 14:54:14;;;;;;;3.45;0.85;;;15.10;52.20;;;;;;5093888;28;20035;-63
2022/02/05 14:56:41;;;;;;;3.30;0.70;;;15.10;51.60;;;;;;5094320;28;20028;-63
2022/02/05 14:59:07;;;;;;;4.75;0.90;;;15.10;52.30;;;;;;5091479;28;20043;-63
2022/02/05 15:01:33;;;;;;;3.45;0.80;;;14.90;51.90;;;;;;5092347;28;20013;-64
2022/02/05 15:03:59;;;;;;;4.72;0.90;;;14.80;52.30;;;;;;5111368;27;20032;-64
2022/02/05 15:06:27;;;;;;;5.85;0.95;;;14.80;52.70;;;;;;5093754;28;20059;-63
2022/02/05 15:08:56;;;;;;;3.67;0.75;;;14.70;52.50;;;;;;5093772;28;20024;-63
2022/02/05 15:11:23;;;;;;;4.15;1.02;;;14.70;52.70;;;;;;5109133;28;20119;-63
2022/02/05 15:13:49;;;;;;;3.17;0.73;;;14.50;52.30;;;;;;5089290;28;20135;-64
2022/02/05 15:16:17;;;;;;;4.85;0.93;;;14.50;53.20;;;;;;5095387;28;20107;-65
2022/02/05 15:19:02;;;;;;;2.70;0.93;;;14.50;53.20;;;;;;5093842;28;20036;-63
2022/02/05 15:21:30;;;;;;;6.15;0.90;;;14.40;53.20;;;;;;5091458;28;20032;-65
2022/02/05 15:23:58;;;;;;;4.30;1.00;;;14.50;53.80;;;;;;5075892;28;20107;-63
2022/02/05 15:26:31;;;;;;;5.03;0.90;;;14.40;53.20;;;;;;5096503;28;20097;-63
2022/02/05 15:28:56;;;;;;;3.33;0.80;;;14.30;53.50;;;;;;5060700;28;20500;-63
2022/02/05 15:31:22;;;;;;;2.65;0.90;;;14.40;53.70;;;;;;5098804;28;20039;-63
2022/02/05 15:33:51;;;;;;;4.32;0.90;;;14.40;53.30;;;;;;5098190;28;20099;-63
2022/02/05 15:36:27;;;;;;;3.08;1.00;;;14.30;53.50;;;;;;5097763;28;20027;-64
2022/02/05 15:44:09;;;;;;;2.67;0.90;;;14.20;53.30;;;;;;5082301;28;20042;-63
2022/02/05 15:46:35;;;;;;;4.97;1.60;;;14.10;53.30;;;;;;5094291;28;20111;-63
2022/02/05 15:49:01;;;;;;;6.95;1.63;;;14.20;54.30;;;;;;5107221;28;20452;-63
2022/02/05 15:51:30;;;;;;;4.50;1.40;;;14.10;53.60;;;;;;5097167;28;20106;-63
2022/02/05 15:54:04;;;;;;;4.47;1.33;;;14.10;53.90;;;;;;5097377;28;20020;-64
2022/02/05 15:58:59;;;;;;;3.50;1.30;;;13.90;53.80;;;;;;5092154;28;20079;-65
2022/02/05 16:01:24;;;;;;;3.55;1.08;;;13.90;54.00;;;;;;5097991;28;20476;-64
2022/02/05 16:03:50;;;;;;;4.13;1.17;;;13.80;54.40;;;;;;5095896;28;20028;-64
2022/02/05 16:06:16;;;;;;;3.35;0.90;;;13.70;54.30;;;;;;5096814;28;20480;-64
2022/02/05 16:08:41;;;;;;;3.08;1.00;;;13.70;54.20;;;;;;5097310;28;20027;-66
2022/02/05 16:11:07;;;;;;;3.72;0.70;;;13.70;54.80;;;;;;5094786;28;20039;-68
2022/02/05 16:13:33;;;;;;;2.58;0.95;;;13.70;54.50;;;;;;5095139;28;20054;-68
2022/02/05 16:15:58;;;;;;;3.97;1.10;;;13.70;54.80;;;;;;5079904;28;20445;-68
2022/02/05 16:18:24;;;;;;;3.67;1.05;;;13.70;54.60;;;;;;5096870;28;20036;-69
2022/02/05 16:20:50;;;;;;;3.38;1.08;;;13.60;54.90;;;;;;5077270;28;20023;-67
2022/02/05 16:23:16;;;;;;;4.15;0.88;;;13.60;55.30;;;;;;5095814;28;20889;-68
2022/02/05 16:25:42;;;;;;;4.47;1.10;;;13.70;55.10;;;;;;5092595;28;20028;-68
2022/02/05 16:28:08;;;;;;;3.47;1.17;;;13.70;55.10;;;;;;5093892;28;20441;-68
2022/02/05 16:30:38;;;;;;;4.82;1.00;;;13.60;55.10;;;;;;5095445;28;20028;-68